sensor_id;sensor_type;location;lat;lon;timestamp;P1;durP1;ratioP1;P2;durP2;ratioP2
11839;SDS011;5979;50.800;4.904;2022-12-08T00:00:51;14.10;;;10.10;;
11839;SDS011;5979;50.800;4.904;2022-12-08T00:03:17;13.67;;;10.23;;
11839;SDS011;5979;50.800;4.904;2022-12-08T00:05:43;18.33;;;11.87;;
11839;SDS011;5979;50.800;4.904;2022-12-08T00:08:28;17.00;;;12.87;;
11839;SDS011;5979;50.800;4.904;2022-12-08T00:11:13;16.53;;;12.77;;
11839;SDS011;5979;50.800;4.904;2022-12-08T00:13:39;21.20;;;13.67;;
11839;SDS011;5979;50.800;4.904;2022-12-08T00:16:05;18.73;;;13.83;;
11839;SDS011;5979;50.800;4.904;2022-12-08T00:18:31;21.33;;;14.97;;
11839;SDS011;5979;50.800;4.904;2022-12-08T00:20:57;22.50;;;14.93;;
11839;SDS011;5979;50.800;4.904;2022-12-08T00:23:23;22.63;;;16.10;;
11839;SDS011;5979;50.800;4.904;2022-12-08T00:25:49;22.00;;;16.47;;
11839;SDS011;5979;50.800;4.904;2022-12-08T00:28:15;25.23;;;16.17;;
11839;SDS011;5979;50.800;4.904;2022-12-08T00:30:41;24.13;;;16.67;;
11839;SDS011;5979;50.800;4.904;2022-12-08T00:33:08;20.90;;;15.87;;
11839;SDS011;5979;50.800;4.904;2022-12-08T00:35:34;21.40;;;15.90;;
11839;SDS011;5979;50.800;4.904;2022-12-08T00:38:00;20.50;;;15.67;;
11839;SDS011;5979;50.800;4.904;2022-12-08T00:40:25;21.70;;;15.63;;
11839;SDS011;5979;50.800;4.904;2022-12-08T00:42:51;24.57;;;16.13;;
11839;SDS011;5979;50.800;4.904;2022-12-08T00:45:17;22.83;;;15.50;;
11839;SDS011;5979;50.800;4.904;2022-12-08T00:47:43;25.17;;;16.87;;
11839;SDS011;5979;50.800;4.904;2022-12-08T00:50:09;24.53;;;17.10;;
11839;SDS011;5979;50.800;4.904;2022-12-08T00:52:35;24.63;;;17.00;;
11839;SDS011;5979;50.800;4.904;2022-12-08T00:55:01;22.13;;;16.27;;
11839;SDS011;5979;50.800;4.904;2022-12-08T00:57:28;25.70;;;16.80;;
11839;SDS011;5979;50.800;4.904;2022-12-08T00:59:53;29.90;;;16.40;;
11839;SDS011;5979;50.800;4.904;2022-12-08T01:02:19;24.13;;;16.57;;
11839;SDS011;5979;50.800;4.904;2022-12-08T01:04:45;22.07;;;16.23;;
11839;SDS011;5979;50.800;4.904;2022-12-08T01:07:10;24.30;;;16.70;;
11839;SDS011;5979;50.800;4.904;2022-12-08T01:09:36;24.40;;;16.27;;
11839;SDS011;5979;50.800;4.904;2022-12-08T01:12:02;25.63;;;16.77;;
11839;SDS011;5979;50.800;4.904;2022-12-08T01:14:28;23.50;;;17.07;;
11839;SDS011;5979;50.800;4.904;2022-12-08T01:16:53;27.47;;;17.47;;
11839;SDS011;5979;50.800;4.904;2022-12-08T01:19:19;25.83;;;17.30;;
11839;SDS011;5979;50.800;4.904;2022-12-08T01:21:45;27.80;;;17.70;;
11839;SDS011;5979;50.800;4.904;2022-12-08T01:24:12;26.00;;;16.87;;
11839;SDS011;5979;50.800;4.904;2022-12-08T01:26:41;27.37;;;16.13;;
11839;SDS011;5979;50.800;4.904;2022-12-08T01:29:08;24.63;;;17.30;;
11839;SDS011;5979;50.800;4.904;2022-12-08T01:31:34;28.20;;;17.00;;
11839;SDS011;5979;50.800;4.904;2022-12-08T01:34:00;22.30;;;16.70;;
11839;SDS011;5979;50.800;4.904;2022-12-08T01:36:27;27.27;;;16.90;;
11839;SDS011;5979;50.800;4.904;2022-12-08T01:38:55;24.60;;;16.73;;
11839;SDS011;5979;50.800;4.904;2022-12-08T01:41:24;24.07;;;17.03;;
11839;SDS011;5979;50.800;4.904;2022-12-08T01:46:33;28.83;;;17.53;;
11839;SDS011;5979;50.800;4.904;2022-12-08T01:49:02;27.87;;;17.93;;
11839;SDS011;5979;50.800;4.904;2022-12-08T01:51:34;26.90;;;17.93;;
11839;SDS011;5979;50.800;4.904;2022-12-08T01:54:06;25.47;;;17.90;;
11839;SDS011;5979;50.800;4.904;2022-12-08T01:56:51;26.80;;;18.07;;
11839;SDS011;5979;50.800;4.904;2022-12-08T01:59:18;27.80;;;18.40;;
11839;SDS011;5979;50.800;4.904;2022-12-08T02:01:44;30.37;;;18.97;;
11839;SDS011;5979;50.800;4.904;2022-12-08T02:04:09;30.40;;;18.63;;
11839;SDS011;5979;50.800;4.904;2022-12-08T02:06:36;27.70;;;19.17;;
11839;SDS011;5979;50.800;4.904;2022-12-08T02:09:05;28.40;;;17.60;;
11839;SDS011;5979;50.800;4.904;2022-12-08T02:11:32;30.40;;;19.57;;
11839;SDS011;5979;50.800;4.904;2022-12-08T02:13:58;29.83;;;18.10;;
11839;SDS011;5979;50.800;4.904;2022-12-08T02:16:32;31.37;;;19.83;;
11839;SDS011;5979;50.800;4.904;2022-12-08T02:22:03;31.33;;;18.83;;
11839;SDS011;5979;50.800;4.904;2022-12-08T02:27:24;30.83;;;19.23;;
11839;SDS011;5979;50.800;4.904;2022-12-08T02:44:05;36.37;;;20.40;;
11839;SDS011;5979;50.800;4.904;2022-12-08T02:46:51;28.23;;;19.63;;
11839;SDS011;5979;50.800;4.904;2022-12-08T02:49:31;35.40;;;20.17;;
11839;SDS011;5979;50.800;4.904;2022-12-08T02:52:04;39.53;;;20.03;;
11839;SDS011;5979;50.800;4.904;2022-12-08T02:54:44;35.30;;;19.70;;
11839;SDS011;5979;50.800;4.904;2022-12-08T03:06:16;34.97;;;20.20;;
11839;SDS011;5979;50.800;4.904;2022-12-08T03:08:35;31.63;;;19.53;;
11839;SDS011;5979;50.800;4.904;2022-12-08T03:11:21;34.67;;;20.73;;
11839;SDS011;5979;50.800;4.904;2022-12-08T03:14:01;35.57;;;20.07;;
11839;SDS011;5979;50.800;4.904;2022-12-08T03:16:29;29.23;;;19.13;;
11839;SDS011;5979;50.800;4.904;2022-12-08T03:21:44;35.17;;;20.13;;
11839;SDS011;5979;50.800;4.904;2022-12-08T03:24:15;34.70;;;19.13;;
11839;SDS011;5979;50.800;4.904;2022-12-08T03:26:48;34.67;;;20.20;;
11839;SDS011;5979;50.800;4.904;2022-12-08T03:29:26;33.33;;;19.50;;
11839;SDS011;5979;50.800;4.904;2022-12-08T03:31:55;31.77;;;19.03;;
11839;SDS011;5979;50.800;4.904;2022-12-08T03:34:24;33.27;;;19.93;;
11839;SDS011;5979;50.800;4.904;2022-12-08T03:36:52;34.57;;;20.03;;
11839;SDS011;5979;50.800;4.904;2022-12-08T03:39:18;36.23;;;21.23;;
11839;SDS011;5979;50.800;4.904;2022-12-08T03:41:44;33.43;;;20.47;;
11839;SDS011;5979;50.800;4.904;2022-12-08T03:44:10;33.47;;;20.13;;
11839;SDS011;5979;50.800;4.904;2022-12-08T03:46:36;36.40;;;20.97;;
11839;SDS011;5979;50.800;4.904;2022-12-08T03:49:02;34.77;;;20.77;;
11839;SDS011;5979;50.800;4.904;2022-12-08T03:51:28;33.33;;;20.33;;
11839;SDS011;5979;50.800;4.904;2022-12-08T03:53:54;35.87;;;20.87;;
11839;SDS011;5979;50.800;4.904;2022-12-08T03:58:51;32.13;;;19.67;;
11839;SDS011;5979;50.800;4.904;2022-12-08T04:01:18;31.17;;;19.57;;
11839;SDS011;5979;50.800;4.904;2022-12-08T04:03:43;31.77;;;18.83;;
11839;SDS011;5979;50.800;4.904;2022-12-08T04:06:09;34.27;;;18.60;;
11839;SDS011;5979;50.800;4.904;2022-12-08T04:08:35;34.23;;;19.53;;
11839;SDS011;5979;50.800;4.904;2022-12-08T04:11:00;29.40;;;18.87;;
11839;SDS011;5979;50.800;4.904;2022-12-08T04:13:26;33.07;;;19.50;;
11839;SDS011;5979;50.800;4.904;2022-12-08T04:15:52;30.90;;;18.67;;
11839;SDS011;5979;50.800;4.904;2022-12-08T04:18:18;30.47;;;18.67;;
11839;SDS011;5979;50.800;4.904;2022-12-08T04:20:44;31.50;;;19.50;;
11839;SDS011;5979;50.800;4.904;2022-12-08T04:23:10;32.00;;;18.93;;
11839;SDS011;5979;50.800;4.904;2022-12-08T04:25:36;32.93;;;19.00;;
11839;SDS011;5979;50.800;4.904;2022-12-08T04:28:03;29.30;;;19.30;;
11839;SDS011;5979;50.800;4.904;2022-12-08T04:30:29;35.57;;;21.33;;
11839;SDS011;5979;50.800;4.904;2022-12-08T04:32:55;31.23;;;19.20;;
11839;SDS011;5979;50.800;4.904;2022-12-08T04:35:21;29.13;;;19.43;;
11839;SDS011;5979;50.800;4.904;2022-12-08T04:37:46;31.47;;;19.80;;
11839;SDS011;5979;50.800;4.904;2022-12-08T04:40:12;32.60;;;19.93;;
11839;SDS011;5979;50.800;4.904;2022-12-08T04:42:38;33.17;;;19.37;;
11839;SDS011;5979;50.800;4.904;2022-12-08T04:45:04;28.63;;;19.03;;
11839;SDS011;5979;50.800;4.904;2022-12-08T04:47:31;30.40;;;19.87;;
11839;SDS011;5979;50.800;4.904;2022-12-08T04:49:57;33.30;;;19.47;;
11839;SDS011;5979;50.800;4.904;2022-12-08T04:52:22;34.13;;;18.87;;
11839;SDS011;5979;50.800;4.904;2022-12-08T04:54:48;28.33;;;19.00;;
11839;SDS011;5979;50.800;4.904;2022-12-08T04:57:14;29.07;;;17.93;;
11839;SDS011;5979;50.800;4.904;2022-12-08T04:59:40;27.63;;;18.70;;
11839;SDS011;5979;50.800;4.904;2022-12-08T05:02:05;30.77;;;18.40;;
11839;SDS011;5979;50.800;4.904;2022-12-08T05:04:31;33.27;;;18.67;;
11839;SDS011;5979;50.800;4.904;2022-12-08T05:06:57;29.43;;;17.90;;
11839;SDS011;5979;50.800;4.904;2022-12-08T05:09:23;29.30;;;18.23;;
11839;SDS011;5979;50.800;4.904;2022-12-08T05:11:48;30.03;;;17.63;;
11839;SDS011;5979;50.800;4.904;2022-12-08T05:14:15;27.97;;;17.53;;
11839;SDS011;5979;50.800;4.904;2022-12-08T05:16:41;31.97;;;18.10;;
11839;SDS011;5979;50.800;4.904;2022-12-08T05:19:08;25.97;;;17.10;;
11839;SDS011;5979;50.800;4.904;2022-12-08T05:21:33;28.60;;;18.53;;
11839;SDS011;5979;50.800;4.904;2022-12-08T05:23:59;26.47;;;17.37;;
11839;SDS011;5979;50.800;4.904;2022-12-08T05:26:25;26.87;;;17.20;;
11839;SDS011;5979;50.800;4.904;2022-12-08T05:28:50;26.13;;;18.03;;
11839;SDS011;5979;50.800;4.904;2022-12-08T05:31:16;24.83;;;17.37;;
11839;SDS011;5979;50.800;4.904;2022-12-08T05:33:43;27.97;;;17.47;;
11839;SDS011;5979;50.800;4.904;2022-12-08T05:36:11;26.67;;;16.67;;
11839;SDS011;5979;50.800;4.904;2022-12-08T05:38:38;25.90;;;16.60;;
11839;SDS011;5979;50.800;4.904;2022-12-08T05:41:06;25.03;;;16.27;;
11839;SDS011;5979;50.800;4.904;2022-12-08T05:43:33;25.37;;;16.53;;
11839;SDS011;5979;50.800;4.904;2022-12-08T05:45:58;30.33;;;17.90;;
11839;SDS011;5979;50.800;4.904;2022-12-08T05:48:24;22.80;;;15.90;;
11839;SDS011;5979;50.800;4.904;2022-12-08T05:50:50;28.50;;;17.80;;
11839;SDS011;5979;50.800;4.904;2022-12-08T05:53:17;26.23;;;16.63;;
11839;SDS011;5979;50.800;4.904;2022-12-08T05:55:44;22.80;;;15.20;;
11839;SDS011;5979;50.800;4.904;2022-12-08T05:58:14;30.33;;;17.33;;
11839;SDS011;5979;50.800;4.904;2022-12-08T06:00:41;27.10;;;15.20;;
11839;SDS011;5979;50.800;4.904;2022-12-08T06:03:09;26.30;;;16.10;;
11839;SDS011;5979;50.800;4.904;2022-12-08T06:05:36;24.00;;;16.63;;
11839;SDS011;5979;50.800;4.904;2022-12-08T06:08:01;26.53;;;15.37;;
11839;SDS011;5979;50.800;4.904;2022-12-08T06:10:27;27.10;;;15.90;;
11839;SDS011;5979;50.800;4.904;2022-12-08T06:12:53;25.23;;;15.60;;
11839;SDS011;5979;50.800;4.904;2022-12-08T06:15:19;23.20;;;14.07;;
11839;SDS011;5979;50.800;4.904;2022-12-08T06:17:45;22.03;;;16.43;;
11839;SDS011;5979;50.800;4.904;2022-12-08T06:20:10;26.40;;;15.47;;
11839;SDS011;5979;50.800;4.904;2022-12-08T06:22:36;22.33;;;15.13;;
11839;SDS011;5979;50.800;4.904;2022-12-08T06:25:02;22.70;;;14.97;;
11839;SDS011;5979;50.800;4.904;2022-12-08T06:27:28;22.53;;;14.50;;
11839;SDS011;5979;50.800;4.904;2022-12-08T06:29:54;22.90;;;14.33;;
11839;SDS011;5979;50.800;4.904;2022-12-08T06:32:20;22.27;;;15.10;;
11839;SDS011;5979;50.800;4.904;2022-12-08T06:34:45;22.40;;;14.47;;
11839;SDS011;5979;50.800;4.904;2022-12-08T06:37:11;25.37;;;15.90;;
11839;SDS011;5979;50.800;4.904;2022-12-08T06:39:37;23.43;;;15.70;;
11839;SDS011;5979;50.800;4.904;2022-12-08T06:42:03;21.03;;;14.57;;
11839;SDS011;5979;50.800;4.904;2022-12-08T06:44:47;27.43;;;15.17;;
11839;SDS011;5979;50.800;4.904;2022-12-08T06:47:13;24.67;;;15.10;;
11839;SDS011;5979;50.800;4.904;2022-12-08T06:49:38;22.57;;;14.40;;
11839;SDS011;5979;50.800;4.904;2022-12-08T06:52:04;22.53;;;14.13;;
11839;SDS011;5979;50.800;4.904;2022-12-08T06:54:30;20.87;;;15.03;;
11839;SDS011;5979;50.800;4.904;2022-12-08T06:56:55;25.50;;;14.80;;
11839;SDS011;5979;50.800;4.904;2022-12-08T06:59:21;23.73;;;14.60;;
11839;SDS011;5979;50.800;4.904;2022-12-08T07:01:50;27.80;;;15.27;;
11839;SDS011;5979;50.800;4.904;2022-12-08T07:04:16;21.90;;;14.17;;
11839;SDS011;5979;50.800;4.904;2022-12-08T07:06:42;24.23;;;14.37;;
11839;SDS011;5979;50.800;4.904;2022-12-08T07:09:08;25.73;;;14.47;;
11839;SDS011;5979;50.800;4.904;2022-12-08T07:11:33;22.23;;;14.63;;
11839;SDS011;5979;50.800;4.904;2022-12-08T07:13:59;22.53;;;13.80;;
11839;SDS011;5979;50.800;4.904;2022-12-08T07:16:25;20.77;;;13.00;;
11839;SDS011;5979;50.800;4.904;2022-12-08T07:18:51;23.47;;;14.83;;
11839;SDS011;5979;50.800;4.904;2022-12-08T07:21:16;21.87;;;13.80;;
11839;SDS011;5979;50.800;4.904;2022-12-08T07:23:46;17.30;;;12.80;;
11839;SDS011;5979;50.800;4.904;2022-12-08T07:26:12;22.73;;;13.23;;
11839;SDS011;5979;50.800;4.904;2022-12-08T07:28:38;18.37;;;12.83;;
11839;SDS011;5979;50.800;4.904;2022-12-08T07:31:06;22.40;;;12.80;;
11839;SDS011;5979;50.800;4.904;2022-12-08T07:33:33;17.17;;;13.10;;
11839;SDS011;5979;50.800;4.904;2022-12-08T07:36:00;20.67;;;12.57;;
11839;SDS011;5979;50.800;4.904;2022-12-08T07:38:28;21.63;;;13.33;;
11839;SDS011;5979;50.800;4.904;2022-12-08T07:40:54;19.73;;;13.00;;
11839;SDS011;5979;50.800;4.904;2022-12-08T07:43:20;21.40;;;13.23;;
11839;SDS011;5979;50.800;4.904;2022-12-08T07:45:47;20.70;;;12.67;;
11839;SDS011;5979;50.800;4.904;2022-12-08T07:48:13;21.07;;;12.97;;
11839;SDS011;5979;50.800;4.904;2022-12-08T07:50:39;16.17;;;11.77;;
11839;SDS011;5979;50.800;4.904;2022-12-08T07:53:05;20.00;;;12.67;;
11839;SDS011;5979;50.800;4.904;2022-12-08T07:55:31;22.43;;;12.93;;
11839;SDS011;5979;50.800;4.904;2022-12-08T07:57:57;23.27;;;12.13;;
11839;SDS011;5979;50.800;4.904;2022-12-08T08:00:22;18.20;;;12.40;;
11839;SDS011;5979;50.800;4.904;2022-12-08T08:02:48;19.60;;;13.27;;
11839;SDS011;5979;50.800;4.904;2022-12-08T08:05:14;17.43;;;12.03;;
11839;SDS011;5979;50.800;4.904;2022-12-08T08:07:40;15.70;;;11.87;;
11839;SDS011;5979;50.800;4.904;2022-12-08T08:10:08;19.50;;;13.17;;
11839;SDS011;5979;50.800;4.904;2022-12-08T08:12:35;21.23;;;13.10;;
11839;SDS011;5979;50.800;4.904;2022-12-08T08:15:03;19.77;;;12.53;;
11839;SDS011;5979;50.800;4.904;2022-12-08T08:17:34;18.90;;;12.70;;
11839;SDS011;5979;50.800;4.904;2022-12-08T08:20:01;20.10;;;12.73;;
11839;SDS011;5979;50.800;4.904;2022-12-08T08:22:33;19.20;;;12.67;;
11839;SDS011;5979;50.800;4.904;2022-12-08T08:24:59;20.43;;;13.13;;
11839;SDS011;5979;50.800;4.904;2022-12-08T08:27:25;20.27;;;13.00;;
11839;SDS011;5979;50.800;4.904;2022-12-08T08:29:51;19.83;;;12.87;;
11839;SDS011;5979;50.800;4.904;2022-12-08T08:32:17;17.87;;;13.40;;
11839;SDS011;5979;50.800;4.904;2022-12-08T08:34:43;24.20;;;14.30;;
11839;SDS011;5979;50.800;4.904;2022-12-08T08:37:08;18.87;;;13.83;;
11839;SDS011;5979;50.800;4.904;2022-12-08T08:39:34;18.07;;;13.47;;
11839;SDS011;5979;50.800;4.904;2022-12-08T08:42:00;20.83;;;13.20;;
11839;SDS011;5979;50.800;4.904;2022-12-08T08:44:25;18.70;;;13.17;;
11839;SDS011;5979;50.800;4.904;2022-12-08T08:46:51;20.73;;;13.10;;
11839;SDS011;5979;50.800;4.904;2022-12-08T08:49:17;18.77;;;13.97;;
11839;SDS011;5979;50.800;4.904;2022-12-08T08:51:42;23.33;;;14.60;;
11839;SDS011;5979;50.800;4.904;2022-12-08T08:54:08;18.87;;;13.47;;
11839;SDS011;5979;50.800;4.904;2022-12-08T08:56:34;22.13;;;14.77;;
11839;SDS011;5979;50.800;4.904;2022-12-08T08:59:00;20.43;;;13.47;;
11839;SDS011;5979;50.800;4.904;2022-12-08T09:01:27;23.03;;;15.00;;
11839;SDS011;5979;50.800;4.904;2022-12-08T09:03:53;19.10;;;13.57;;
11839;SDS011;5979;50.800;4.904;2022-12-08T09:06:19;24.07;;;14.87;;
11839;SDS011;5979;50.800;4.904;2022-12-08T09:08:46;23.20;;;14.00;;
11839;SDS011;5979;50.800;4.904;2022-12-08T09:11:12;20.70;;;13.90;;
11839;SDS011;5979;50.800;4.904;2022-12-08T09:13:38;24.60;;;14.47;;
11839;SDS011;5979;50.800;4.904;2022-12-08T09:16:05;25.43;;;14.20;;
11839;SDS011;5979;50.800;4.904;2022-12-08T09:18:32;18.23;;;13.13;;
11839;SDS011;5979;50.800;4.904;2022-12-08T09:21:08;28.13;;;14.87;;
11839;SDS011;5979;50.800;4.904;2022-12-08T09:23:41;19.47;;;14.00;;
11839;SDS011;5979;50.800;4.904;2022-12-08T09:26:07;22.90;;;14.20;;
11839;SDS011;5979;50.800;4.904;2022-12-08T09:28:33;22.63;;;13.93;;
11839;SDS011;5979;50.800;4.904;2022-12-08T09:30:59;21.50;;;14.73;;
11839;SDS011;5979;50.800;4.904;2022-12-08T09:33:25;20.50;;;13.43;;
11839;SDS011;5979;50.800;4.904;2022-12-08T09:35:51;17.53;;;13.10;;
11839;SDS011;5979;50.800;4.904;2022-12-08T09:38:16;22.27;;;14.17;;
11839;SDS011;5979;50.800;4.904;2022-12-08T09:40:52;21.23;;;13.52;;
11839;SDS011;5979;50.800;4.904;2022-12-08T09:46:28;20.55;;;13.65;;
11839;SDS011;5979;50.800;4.904;2022-12-08T09:48:58;18.47;;;13.67;;
11839;SDS011;5979;50.800;4.904;2022-12-08T09:51:34;19.53;;;13.30;;
11839;SDS011;5979;50.800;4.904;2022-12-08T09:54:08;20.47;;;12.77;;
11839;SDS011;5979;50.800;4.904;2022-12-08T09:56:41;22.92;;;13.57;;
11839;SDS011;5979;50.800;4.904;2022-12-08T10:01:36;18.27;;;12.45;;
11839;SDS011;5979;50.800;4.904;2022-12-08T10:06:47;19.23;;;12.88;;
11839;SDS011;5979;50.800;4.904;2022-12-08T10:09:44;20.55;;;13.25;;
11839;SDS011;5979;50.800;4.904;2022-12-08T10:17:50;17.40;;;11.60;;
11839;SDS011;5979;50.800;4.904;2022-12-08T10:20:18;20.27;;;12.83;;
11839;SDS011;5979;50.800;4.904;2022-12-08T10:22:48;16.70;;;12.20;;
11839;SDS011;5979;50.800;4.904;2022-12-08T10:25:18;18.23;;;12.80;;
11839;SDS011;5979;50.800;4.904;2022-12-08T10:27:50;17.63;;;11.80;;
11839;SDS011;5979;50.800;4.904;2022-12-08T10:30:18;16.85;;;12.07;;
11839;SDS011;5979;50.800;4.904;2022-12-08T10:32:46;17.45;;;11.55;;
11839;SDS011;5979;50.800;4.904;2022-12-08T10:35:15;21.13;;;11.60;;
11839;SDS011;5979;50.800;4.904;2022-12-08T10:37:55;17.63;;;11.25;;
11839;SDS011;5979;50.800;4.904;2022-12-08T10:40:22;15.68;;;11.32;;
11839;SDS011;5979;50.800;4.904;2022-12-08T10:42:54;18.00;;;10.73;;
11839;SDS011;5979;50.800;4.904;2022-12-08T10:45:26;18.40;;;11.35;;
11839;SDS011;5979;50.800;4.904;2022-12-08T10:48:04;15.80;;;10.30;;
11839;SDS011;5979;50.800;4.904;2022-12-08T10:50:51;13.48;;;10.07;;
11839;SDS011;5979;50.800;4.904;2022-12-08T10:53:26;15.90;;;10.43;;
11839;SDS011;5979;50.800;4.904;2022-12-08T10:58:38;14.80;;;9.80;;
11839;SDS011;5979;50.800;4.904;2022-12-08T11:08:48;15.23;;;9.82;;
11839;SDS011;5979;50.800;4.904;2022-12-08T11:11:19;14.55;;;9.27;;
11839;SDS011;5979;50.800;4.904;2022-12-08T11:13:46;13.00;;;9.27;;
11839;SDS011;5979;50.800;4.904;2022-12-08T11:16:14;14.68;;;9.68;;
11839;SDS011;5979;50.800;4.904;2022-12-08T11:18:46;12.60;;;8.90;;
11839;SDS011;5979;50.800;4.904;2022-12-08T11:21:19;14.02;;;8.73;;
11839;SDS011;5979;50.800;4.904;2022-12-08T11:23:59;12.15;;;9.55;;
11839;SDS011;5979;50.800;4.904;2022-12-08T11:27:02;15.90;;;9.27;;
11839;SDS011;5979;50.800;4.904;2022-12-08T11:29:31;15.85;;;9.65;;
11839;SDS011;5979;50.800;4.904;2022-12-08T11:32:10;11.50;;;8.93;;
11839;SDS011;5979;50.800;4.904;2022-12-08T11:34:41;13.50;;;8.55;;
11839;SDS011;5979;50.800;4.904;2022-12-08T11:37:14;11.02;;;8.80;;
11839;SDS011;5979;50.800;4.904;2022-12-08T11:39:58;14.43;;;8.85;;
11839;SDS011;5979;50.800;4.904;2022-12-08T11:42:30;13.45;;;8.20;;
11839;SDS011;5979;50.800;4.904;2022-12-08T11:45:06;13.60;;;8.48;;
11839;SDS011;5979;50.800;4.904;2022-12-08T11:47:40;15.02;;;9.23;;
11839;SDS011;5979;50.800;4.904;2022-12-08T11:53:04;13.95;;;7.70;;
11839;SDS011;5979;50.800;4.904;2022-12-08T11:55:39;11.02;;;7.35;;
11839;SDS011;5979;50.800;4.904;2022-12-08T11:58:28;13.88;;;7.78;;
11839;SDS011;5979;50.800;4.904;2022-12-08T12:01:17;11.38;;;7.93;;
11839;SDS011;5979;50.800;4.904;2022-12-08T12:03:47;11.15;;;7.90;;
11839;SDS011;5979;50.800;4.904;2022-12-08T12:11:49;13.15;;;8.18;;
11839;SDS011;5979;50.800;4.904;2022-12-08T12:17:31;15.00;;;8.63;;
11839;SDS011;5979;50.800;4.904;2022-12-08T12:20:16;13.40;;;9.07;;
11839;SDS011;5979;50.800;4.904;2022-12-08T12:22:42;13.55;;;9.13;;
11839;SDS011;5979;50.800;4.904;2022-12-08T12:25:15;11.07;;;8.27;;
11839;SDS011;5979;50.800;4.904;2022-12-08T12:27:47;14.00;;;8.55;;
11839;SDS011;5979;50.800;4.904;2022-12-08T12:30:25;17.13;;;9.25;;
11839;SDS011;5979;50.800;4.904;2022-12-08T12:32:54;12.80;;;8.02;;
11839;SDS011;5979;50.800;4.904;2022-12-08T12:35:31;10.95;;;8.25;;
11839;SDS011;5979;50.800;4.904;2022-12-08T12:38:03;9.52;;;7.63;;
11839;SDS011;5979;50.800;4.904;2022-12-08T12:41:02;11.75;;;7.97;;
11839;SDS011;5979;50.800;4.904;2022-12-08T12:43:35;11.52;;;7.65;;
11839;SDS011;5979;50.800;4.904;2022-12-08T12:48:46;10.88;;;7.28;;
11839;SDS011;5979;50.800;4.904;2022-12-08T12:51:45;8.23;;;7.20;;
11839;SDS011;5979;50.800;4.904;2022-12-08T12:54:24;12.50;;;7.63;;
11839;SDS011;5979;50.800;4.904;2022-12-08T12:56:54;10.25;;;7.80;;
11839;SDS011;5979;50.800;4.904;2022-12-08T12:59:40;13.85;;;7.30;;
11839;SDS011;5979;50.800;4.904;2022-12-08T13:02:53;13.02;;;8.13;;
11839;SDS011;5979;50.800;4.904;2022-12-08T13:08:14;8.38;;;6.68;;
11839;SDS011;5979;50.800;4.904;2022-12-08T13:11:02;30.55;;;11.95;;
11839;SDS011;5979;50.800;4.904;2022-12-08T13:13:34;32.25;;;11.95;;
11839;SDS011;5979;50.800;4.904;2022-12-08T13:16:04;15.27;;;7.45;;
11839;SDS011;5979;50.800;4.904;2022-12-08T13:18:47;10.18;;;8.05;;
11839;SDS011;5979;50.800;4.904;2022-12-08T13:21:15;9.95;;;6.93;;
11839;SDS011;5979;50.800;4.904;2022-12-08T13:23:46;13.00;;;7.40;;
11839;SDS011;5979;50.800;4.904;2022-12-08T13:29:04;11.38;;;7.40;;
11839;SDS011;5979;50.800;4.904;2022-12-08T13:50:28;8.75;;;5.93;;
11839;SDS011;5979;50.800;4.904;2022-12-08T13:53:00;10.10;;;6.55;;
11839;SDS011;5979;50.800;4.904;2022-12-08T13:55:39;8.48;;;6.38;;
11839;SDS011;5979;50.800;4.904;2022-12-08T13:58:30;10.82;;;5.80;;
11839;SDS011;5979;50.800;4.904;2022-12-08T14:06:24;6.82;;;6.00;;
11839;SDS011;5979;50.800;4.904;2022-12-08T14:08:55;7.65;;;5.85;;
11839;SDS011;5979;50.800;4.904;2022-12-08T14:11:35;8.25;;;6.53;;
11839;SDS011;5979;50.800;4.904;2022-12-08T14:14:07;7.10;;;5.90;;
11839;SDS011;5979;50.800;4.904;2022-12-08T14:16:38;9.35;;;6.32;;
11839;SDS011;5979;50.800;4.904;2022-12-08T14:19:06;7.88;;;5.93;;
11839;SDS011;5979;50.800;4.904;2022-12-08T14:21:40;6.93;;;5.80;;
11839;SDS011;5979;50.800;4.904;2022-12-08T14:24:07;8.23;;;6.43;;
11839;SDS011;5979;50.800;4.904;2022-12-08T14:26:35;8.57;;;5.65;;
11839;SDS011;5979;50.800;4.904;2022-12-08T14:29:00;8.00;;;5.85;;
11839;SDS011;5979;50.800;4.904;2022-12-08T14:31:26;8.13;;;5.80;;
11839;SDS011;5979;50.800;4.904;2022-12-08T14:33:53;10.50;;;7.20;;
11839;SDS011;5979;50.800;4.904;2022-12-08T14:36:19;6.65;;;6.00;;
11839;SDS011;5979;50.800;4.904;2022-12-08T14:38:45;7.10;;;5.97;;
11839;SDS011;5979;50.800;4.904;2022-12-08T14:41:12;8.40;;;5.55;;
11839;SDS011;5979;50.800;4.904;2022-12-08T14:43:38;7.45;;;6.05;;
11839;SDS011;5979;50.800;4.904;2022-12-08T14:46:17;8.35;;;6.60;;
11839;SDS011;5979;50.800;4.904;2022-12-08T14:48:45;10.23;;;6.18;;
11839;SDS011;5979;50.800;4.904;2022-12-08T14:51:13;7.40;;;6.28;;
11839;SDS011;5979;50.800;4.904;2022-12-08T14:56:31;12.48;;;6.72;;
11839;SDS011;5979;50.800;4.904;2022-12-08T15:01:38;8.20;;;6.70;;
11839;SDS011;5979;50.800;4.904;2022-12-08T15:06:36;15.18;;;7.75;;
11839;SDS011;5979;50.800;4.904;2022-12-08T15:09:15;9.77;;;6.88;;
11839;SDS011;5979;50.800;4.904;2022-12-08T15:11:58;7.28;;;6.47;;
11839;SDS011;5979;50.800;4.904;2022-12-08T15:15:28;11.27;;;7.07;;
11839;SDS011;5979;50.800;4.904;2022-12-08T15:20:23;7.93;;;2.88;;
11839;SDS011;5979;50.800;4.904;2022-12-08T15:22:50;2.10;;;1.60;;
11839;SDS011;5979;50.800;4.904;2022-12-08T15:25:17;2.87;;;1.90;;
11839;SDS011;5979;50.800;4.904;2022-12-08T15:27:42;4.47;;;2.40;;
11839;SDS011;5979;50.800;4.904;2022-12-08T15:30:12;7.03;;;2.70;;
11839;SDS011;5979;50.800;4.904;2022-12-08T15:32:39;3.03;;;2.20;;
11839;SDS011;5979;50.800;4.904;2022-12-08T15:35:05;3.73;;;2.73;;
11839;SDS011;5979;50.800;4.904;2022-12-08T15:37:31;2.67;;;2.47;;
11839;SDS011;5979;50.800;4.904;2022-12-08T15:39:57;3.37;;;2.50;;
11839;SDS011;5979;50.800;4.904;2022-12-08T15:42:23;3.10;;;2.30;;
11839;SDS011;5979;50.800;4.904;2022-12-08T15:44:48;2.83;;;2.10;;
11839;SDS011;5979;50.800;4.904;2022-12-08T15:47:15;3.40;;;2.23;;
11839;SDS011;5979;50.800;4.904;2022-12-08T15:49:43;1.90;;;1.80;;
11839;SDS011;5979;50.800;4.904;2022-12-08T15:52:12;3.20;;;1.90;;
11839;SDS011;5979;50.800;4.904;2022-12-08T15:54:39;2.40;;;2.20;;
11839;SDS011;5979;50.800;4.904;2022-12-08T15:57:05;3.23;;;1.77;;
11839;SDS011;5979;50.800;4.904;2022-12-08T15:59:39;2.90;;;1.77;;
11839;SDS011;5979;50.800;4.904;2022-12-08T16:02:04;3.77;;;2.57;;
11839;SDS011;5979;50.800;4.904;2022-12-08T16:04:30;5.77;;;2.77;;
11839;SDS011;5979;50.800;4.904;2022-12-08T16:06:56;2.40;;;2.20;;
11839;SDS011;5979;50.800;4.904;2022-12-08T16:12:13;5.30;;;3.70;;
11839;SDS011;5979;50.800;4.904;2022-12-08T16:14:59;5.50;;;4.47;;
11839;SDS011;5979;50.800;4.904;2022-12-08T16:17:25;4.93;;;4.20;;
11839;SDS011;5979;50.800;4.904;2022-12-08T16:19:52;5.87;;;4.40;;
11839;SDS011;5979;50.800;4.904;2022-12-08T16:22:19;6.27;;;4.93;;
11839;SDS011;5979;50.800;4.904;2022-12-08T16:24:46;7.03;;;6.33;;
11839;SDS011;5979;50.800;4.904;2022-12-08T16:27:22;7.72;;;6.35;;
11839;SDS011;5979;50.800;4.904;2022-12-08T16:29:51;11.03;;;7.17;;
11839;SDS011;5979;50.800;4.904;2022-12-08T16:32:18;10.63;;;6.87;;
11839;SDS011;5979;50.800;4.904;2022-12-08T16:34:44;7.38;;;6.18;;
11839;SDS011;5979;50.800;4.904;2022-12-08T16:37:13;7.20;;;6.00;;
11839;SDS011;5979;50.800;4.904;2022-12-08T16:39:40;8.23;;;6.47;;
11839;SDS011;5979;50.800;4.904;2022-12-08T16:42:11;8.07;;;7.27;;
11839;SDS011;5979;50.800;4.904;2022-12-08T16:44:56;10.67;;;8.53;;
11839;SDS011;5979;50.800;4.904;2022-12-08T16:47:23;11.40;;;8.83;;
11839;SDS011;5979;50.800;4.904;2022-12-08T16:49:48;15.00;;;9.30;;
11839;SDS011;5979;50.800;4.904;2022-12-08T16:52:14;14.37;;;9.27;;